KWST/WST METAR and TAF weather

Enter ICAO airport designator
Station Type Date Time Source
KWST METAR 2020/10/20 18:06 UTC NOAA

KWST 201806Z AUTO 00000KT 1 1/2SM -RA BR OVC005 18/17 A3024 RMK AO2 P0000 T01830167


Station Type Date Time Source
KWST Decoded METAR 2020/10/20 18:06 UTC NOAA

WESTERLY STATE AIRPORT, RI, United States (KWST) 41-21N 071-48W 21M
Oct 20, 2020 - 02:06 PM EDT / 2020.10.20 1806 UTC
Wind: Calm:0
Visibility: 1 1/2 mile(s):0
Sky conditions: overcast
Weather: light rain; mist
Precipitation last hour: A trace
Temperature: 64.9 F (18.3 C)
Dew Point: 62.1 F (16.7 C)
Relative Humidity: 90%
Pressure (altimeter): 30.24 in. Hg (1024 hPa)
ob: KWST 201806Z AUTO 00000KT 1 1/2SM -RA BR OVC005 18/17 A3024 RMK AO2 P0000 T01830167
cycle: 18

Station Type Date Time Source
KWST TAF UTC NOAA

Error!

Example: see airport list